createdAt,value
2017-01-05T00:00:00.445Z,0
2017-01-05T00:00:41.158Z,0
2017-01-05T00:01:21.963Z,0
2017-01-05T00:02:02.693Z,0
2017-01-05T00:02:43.253Z,0
2017-01-05T00:03:23.970Z,0
2017-01-05T00:04:04.619Z,0
2017-01-05T00:04:45.185Z,0
2017-01-05T00:05:25.837Z,0
2017-01-05T00:06:06.480Z,0
2017-01-05T00:06:47.136Z,0
2017-01-05T00:07:27.794Z,0
2017-01-05T00:08:08.441Z,0
2017-01-05T00:08:49.003Z,0
2017-01-05T00:09:29.694Z,0
2017-01-05T00:10:10.611Z,0
2017-01-05T00:10:51.193Z,0
2017-01-05T00:11:31.749Z,0
2017-01-05T00:12:12.424Z,0
2017-01-05T00:12:53.008Z,0
2017-01-05T00:13:33.612Z,0
2017-01-05T00:14:14.185Z,0
2017-01-05T00:14:54.911Z,0
2017-01-05T00:15:36.699Z,0
2017-01-05T00:16:17.335Z,0
2017-01-05T00:16:57.894Z,0
2017-01-05T00:17:38.528Z,0
2017-01-05T00:18:19.380Z,0
2017-01-05T00:18:59.952Z,0
2017-01-05T00:19:40.607Z,0
2017-01-05T00:20:21.255Z,0
2017-01-05T00:21:01.927Z,0
2017-01-05T00:21:42.561Z,0
2017-01-05T00:22:23.216Z,0
2017-01-05T00:23:03.871Z,0
2017-01-05T00:23:44.519Z,0
2017-01-05T00:24:25.193Z,0
2017-01-05T00:26:53.994Z,0
2017-01-05T00:27:34.677Z,0
2017-01-05T00:28:16.292Z,0
2017-01-05T00:28:56.850Z,0
2017-01-05T00:29:37.442Z,0
2017-01-05T00:30:18.110Z,0
2017-01-05T00:30:58.802Z,0
2017-01-05T00:31:39.363Z,0
2017-01-05T00:32:19.947Z,0
2017-01-05T00:33:00.694Z,0
2017-01-05T00:33:41.397Z,0
2017-01-05T00:34:21.950Z,0
2017-01-05T00:35:02.758Z,0
2017-01-05T00:35:43.511Z,0
2017-01-05T00:36:24.283Z,0
2017-01-05T00:37:05.018Z,0
2017-01-05T00:37:45.772Z,0
2017-01-05T00:38:26.545Z,0
2017-01-05T00:39:07.283Z,0
2017-01-05T00:39:48.195Z,0
2017-01-05T00:40:28.920Z,0
2017-01-05T00:41:09.656Z,0
2017-01-05T00:41:50.406Z,0
2017-01-05T00:42:31.174Z,0
2017-01-05T00:43:11.941Z,0
2017-01-05T00:43:53.290Z,0
2017-01-05T00:44:33.911Z,0
2017-01-05T00:45:14.667Z,0
2017-01-05T00:45:55.348Z,0
2017-01-05T00:46:35.902Z,0
2017-01-05T00:47:16.668Z,0
2017-01-05T00:47:57.422Z,0
2017-01-05T00:48:38.007Z,0
2017-01-05T00:49:18.758Z,0
2017-01-05T00:49:59.485Z,0
2017-01-05T00:50:40.240Z,0
2017-01-05T00:51:20.981Z,0
2017-01-05T00:52:01.736Z,0
2017-01-05T00:52:42.538Z,0
2017-01-05T00:53:23.258Z,0
2017-01-05T00:54:04.038Z,0
2017-01-05T00:54:44.775Z,0
2017-01-05T00:55:25.472Z,0
2017-01-05T00:56:06.035Z,0
2017-01-05T00:56:46.716Z,0
2017-01-05T00:57:27.678Z,0
2017-01-05T00:58:08.377Z,0
2017-01-05T00:58:48.933Z,0
2017-01-05T00:59:29.654Z,0
2017-01-05T01:00:10.411Z,0
2017-01-05T01:00:51.145Z,0
2017-01-05T01:01:31.921Z,0
2017-01-05T01:02:12.677Z,0
2017-01-05T01:02:53.441Z,0
2017-01-05T01:03:34.192Z,0
2017-01-05T01:04:14.925Z,0
2017-01-05T01:04:56.916Z,0
2017-01-05T01:05:37.608Z,0
2017-01-05T01:06:18.201Z,0
2017-01-05T01:06:58.865Z,0
2017-01-05T01:07:39.645Z,0
2017-01-05T01:08:20.328Z,0
2017-01-05T01:09:00.897Z,0
2017-01-05T01:09:41.503Z,0
2017-01-05T01:10:22.145Z,0
2017-01-05T01:11:02.810Z,0
2017-01-05T01:11:43.450Z,0
2017-01-05T01:12:24.120Z,0
2017-01-05T01:13:04.797Z,0
2017-01-05T01:13:45.422Z,0
2017-01-05T01:14:26.096Z,0
2017-01-05T01:15:06.776Z,0
2017-01-05T01:15:47.410Z,0
2017-01-05T01:16:27.972Z,0
2017-01-05T01:17:08.585Z,0
2017-01-05T01:17:49.225Z,0
2017-01-05T01:18:29.812Z,0
2017-01-05T01:19:10.380Z,0
2017-01-05T01:19:50.989Z,0
2017-01-05T01:20:31.620Z,0
2017-01-05T01:21:12.283Z,0
2017-01-05T01:21:52.927Z,0
2017-01-05T01:22:33.606Z,0
2017-01-05T01:23:14.258Z,0
2017-01-05T01:23:54.893Z,0
2017-01-05T01:24:35.567Z,0
2017-01-05T01:25:16.194Z,0
2017-01-05T01:25:56.849Z,0
2017-01-05T01:26:37.528Z,0
2017-01-05T01:27:18.202Z,0
2017-01-05T01:27:59.887Z,0
2017-01-05T01:28:40.549Z,0
2017-01-05T01:29:21.192Z,0
2017-01-05T01:30:01.851Z,0
2017-01-05T01:30:42.490Z,0
2017-01-05T01:31:23.124Z,0
2017-01-05T01:32:03.830Z,0
2017-01-05T01:32:44.558Z,0
2017-01-05T01:33:25.320Z,0
2017-01-05T01:34:05.966Z,0
2017-01-05T01:34:46.661Z,0
2017-01-05T01:35:27.302Z,0
2017-01-05T01:36:08.029Z,0
2017-01-05T01:36:48.680Z,0
2017-01-05T01:37:29.363Z,0
2017-01-05T01:38:09.955Z,0
2017-01-05T01:38:50.623Z,0
2017-01-05T01:39:31.330Z,0
2017-01-05T01:40:12.048Z,0
2017-01-05T01:40:52.709Z,0
2017-01-05T01:41:33.455Z,0
2017-01-05T01:42:14.093Z,0
2017-01-05T01:42:54.849Z,0
2017-01-05T01:43:35.527Z,0
2017-01-05T01:44:16.174Z,0
2017-01-05T01:44:56.806Z,0
2017-01-05T01:45:37.491Z,0
2017-01-05T01:46:18.114Z,0
2017-01-05T01:46:58.769Z,0
2017-01-05T01:47:39.455Z,0
2017-01-05T01:48:21.108Z,0
2017-01-05T01:49:02.824Z,0
2017-01-05T01:49:43.386Z,0
2017-01-05T01:50:24.078Z,0
2017-01-05T01:51:04.733Z,0
2017-01-05T01:51:45.295Z,0
2017-01-05T01:52:25.925Z,0
2017-01-05T01:53:06.593Z,0
2017-01-05T01:53:47.151Z,0
2017-01-05T01:54:27.804Z,0
2017-01-05T01:55:08.486Z,0
2017-01-05T01:55:49.031Z,0
2017-01-05T01:56:29.754Z,0
2017-01-05T01:57:10.415Z,0
2017-01-05T01:57:50.965Z,0
2017-01-05T01:58:31.602Z,0
2017-01-05T01:59:12.775Z,0
2017-01-05T01:59:53.475Z,0
2017-01-05T02:00:34.015Z,0
2017-01-05T02:01:14.716Z,0
2017-01-05T02:01:55.396Z,0
2017-01-05T02:02:36.077Z,0
2017-01-05T02:03:16.665Z,0
2017-01-05T02:05:55.980Z,0
2017-01-05T02:06:36.687Z,0
2017-01-05T02:07:17.325Z,0
2017-01-05T02:07:57.959Z,0
2017-01-05T02:08:38.629Z,0
2017-01-05T02:09:19.283Z,0
2017-01-05T02:09:59.923Z,0
2017-01-05T02:10:40.628Z,0
2017-01-05T02:11:21.344Z,0
2017-01-05T02:12:02.038Z,0
2017-01-05T02:12:42.737Z,0
2017-01-05T02:13:23.400Z,0
2017-01-05T02:14:04.059Z,0
2017-01-05T02:14:44.719Z,0
2017-01-05T02:15:25.379Z,0
2017-01-05T02:16:05.921Z,0
2017-01-05T02:16:46.571Z,0
2017-01-05T02:17:27.243Z,0
2017-01-05T02:18:07.817Z,0
2017-01-05T02:18:48.548Z,0
2017-01-05T02:19:29.184Z,0
2017-01-05T02:20:09.909Z,0
2017-01-05T02:20:50.580Z,0
2017-01-05T02:21:31.256Z,0
2017-01-05T02:22:11.807Z,0
2017-01-05T02:22:52.457Z,0
2017-01-05T02:23:33.146Z,0
2017-01-05T02:24:13.710Z,0
2017-01-05T02:24:54.404Z,0
2017-01-05T02:25:35.073Z,0
2017-01-05T02:26:15.670Z,0
2017-01-05T02:26:56.364Z,0
2017-01-05T02:27:37.942Z,0
2017-01-05T02:28:18.514Z,0
2017-01-05T02:28:59.224Z,0
2017-01-05T02:29:39.907Z,0
2017-01-05T02:30:20.457Z,0
2017-01-05T02:31:01.085Z,0
2017-01-05T02:31:41.823Z,0
2017-01-05T02:32:22.388Z,0
2017-01-05T02:33:04.029Z,0
2017-01-05T02:33:44.769Z,0
2017-01-05T02:34:25.319Z,0
2017-01-05T02:35:06.055Z,0
2017-01-05T02:35:46.805Z,0
2017-01-05T02:36:27.501Z,0
2017-01-05T02:37:08.069Z,0
2017-01-05T02:37:48.759Z,0
2017-01-05T02:38:29.639Z,0
2017-01-05T02:39:10.316Z,0
2017-01-05T02:39:50.892Z,0
2017-01-05T02:40:32.609Z,0
2017-01-05T02:41:13.160Z,0
2017-01-05T02:41:53.833Z,0
2017-01-05T02:42:34.467Z,0
2017-01-05T02:43:15.026Z,0
2017-01-05T02:43:55.748Z,0
2017-01-05T02:44:36.452Z,0
2017-01-05T02:45:17.223Z,0
2017-01-05T02:45:57.785Z,0
2017-01-05T02:46:38.470Z,0
2017-01-05T02:47:19.124Z,0
2017-01-05T02:47:59.833Z,0
2017-01-05T02:48:40.390Z,0
2017-01-05T02:49:21.184Z,0
2017-01-05T02:50:01.847Z,0
2017-01-05T02:50:42.540Z,0
2017-01-05T02:51:23.147Z,0
2017-01-05T02:52:03.781Z,0
2017-01-05T02:52:44.560Z,0
2017-01-05T02:53:25.881Z,0
2017-01-05T02:54:07.249Z,0
2017-01-05T02:54:47.946Z,0
2017-01-05T02:55:28.703Z,0
2017-01-05T02:56:09.408Z,0
2017-01-05T02:56:49.990Z,0
2017-01-05T02:57:30.644Z,0
2017-01-05T02:58:11.321Z,0
2017-01-05T02:58:52.115Z,0
2017-01-05T02:59:32.657Z,0
2017-01-05T03:00:13.350Z,0
2017-01-05T03:00:54.036Z,0
2017-01-05T03:01:35.346Z,0
2017-01-05T03:02:15.930Z,0
2017-01-05T03:02:56.516Z,0
2017-01-05T03:03:37.978Z,0
2017-01-05T03:04:18.678Z,0
2017-01-05T03:04:59.237Z,0
2017-01-05T03:05:39.934Z,0
2017-01-05T03:06:20.590Z,0
2017-01-05T03:07:01.290Z,0
2017-01-05T03:07:42.434Z,0
2017-01-05T03:08:23.140Z,0
2017-01-05T03:09:03.841Z,0
2017-01-05T03:09:45.538Z,0
2017-01-05T03:10:26.121Z,0
2017-01-05T03:11:06.768Z,0
2017-01-05T03:11:47.453Z,0
2017-01-05T03:12:28.868Z,0
2017-01-05T03:13:09.397Z,0
2017-01-05T03:13:51.073Z,0
2017-01-05T03:14:31.806Z,0
2017-01-05T03:15:12.407Z,0
2017-01-05T03:15:53.114Z,0
2017-01-05T03:16:33.769Z,0
2017-01-05T03:17:14.318Z,0
2017-01-05T03:17:55.071Z,0
2017-01-05T03:18:35.725Z,0
2017-01-05T03:19:16.270Z,0
2017-01-05T03:19:56.989Z,0
2017-01-05T03:20:37.676Z,0
2017-01-05T03:21:18.390Z,0
2017-01-05T03:21:58.932Z,0
2017-01-05T03:22:39.630Z,0
2017-01-05T03:23:20.390Z,0
2017-01-05T03:24:01.092Z,0
2017-01-05T03:24:42.248Z,0
2017-01-05T03:25:22.967Z,0
2017-01-05T03:26:03.627Z,0
2017-01-05T03:26:44.318Z,0
2017-01-05T03:27:24.896Z,0
2017-01-05T03:28:05.570Z,0
2017-01-05T03:28:46.242Z,0
2017-01-05T03:29:26.928Z,0
2017-01-05T03:30:07.518Z,0
2017-01-05T03:30:48.192Z,0
2017-01-05T03:31:28.946Z,0
2017-01-05T03:32:09.541Z,0
2017-01-05T03:32:50.113Z,0
2017-01-05T03:33:30.810Z,0
2017-01-05T03:34:11.552Z,0
2017-01-05T03:34:52.253Z,0
2017-01-05T03:35:33.110Z,0
2017-01-05T03:36:13.714Z,0
2017-01-05T03:36:54.383Z,0
2017-01-05T03:37:35.126Z,0
2017-01-05T03:38:15.778Z,0
2017-01-05T03:38:56.428Z,0
2017-01-05T03:39:37.095Z,0
2017-01-05T03:40:17.735Z,0
2017-01-05T03:40:58.388Z,0
2017-01-05T03:41:39.069Z,0
2017-01-05T03:42:19.799Z,0
2017-01-05T03:43:00.448Z,0
2017-01-05T03:43:41.101Z,0
2017-01-05T03:44:21.756Z,0
2017-01-05T03:45:02.298Z,0
2017-01-05T03:45:43.748Z,0
2017-01-05T03:46:24.542Z,0
2017-01-05T03:47:05.106Z,0
2017-01-05T03:47:50.460Z,0
2017-01-05T03:48:31.203Z,0
2017-01-05T03:49:11.752Z,0
2017-01-05T03:49:52.665Z,0
2017-01-05T03:50:33.392Z,0
2017-01-05T03:51:15.056Z,0
2017-01-05T03:51:55.695Z,0
2017-01-05T03:52:37.378Z,0
2017-01-05T03:53:22.738Z,0
2017-01-05T03:54:03.496Z,0
2017-01-05T03:54:45.272Z,0
2017-01-05T03:55:26.997Z,0
2017-01-05T03:56:07.554Z,0
2017-01-05T03:56:50.303Z,0
2017-01-05T03:57:30.982Z,0
2017-01-05T03:58:11.695Z,0
2017-01-05T03:58:53.038Z,0
2017-01-05T03:59:33.614Z,0
2017-01-05T04:00:14.281Z,0
2017-01-05T04:00:56.408Z,0
2017-01-05T04:01:37.129Z,0
2017-01-05T04:02:18.925Z,0
2017-01-05T04:02:59.663Z,0
2017-01-05T04:03:41.337Z,0
2017-01-05T04:04:24.104Z,0
2017-01-05T04:05:04.797Z,0
2017-01-05T04:05:45.553Z,0
2017-01-05T04:06:27.227Z,0
2017-01-05T04:07:07.979Z,0
2017-01-05T04:07:48.730Z,0
2017-01-05T04:08:29.401Z,0
2017-01-05T04:09:10.163Z,0
2017-01-05T04:09:51.830Z,0
2017-01-05T04:10:39.357Z,0
2017-01-05T04:11:21.017Z,0
2017-01-05T04:12:01.695Z,0
2017-01-05T04:12:47.251Z,0
2017-01-05T04:13:27.987Z,0
2017-01-05T04:14:14.293Z,0
2017-01-05T04:14:55.030Z,0
2017-01-05T04:15:42.246Z,0
2017-01-05T04:16:22.905Z,0
2017-01-05T04:17:03.579Z,0
2017-01-05T04:17:45.258Z,0
2017-01-05T04:18:25.916Z,0
2017-01-05T04:19:07.592Z,0
2017-01-05T04:19:48.252Z,0
2017-01-05T04:20:28.896Z,0
2017-01-05T04:21:09.549Z,0
2017-01-05T04:21:50.200Z,0
2017-01-05T04:22:30.853Z,0
2017-01-05T04:23:11.505Z,0
2017-01-05T04:23:52.161Z,0
2017-01-05T04:24:32.812Z,0
2017-01-05T04:25:15.310Z,0
2017-01-05T04:25:55.968Z,0
2017-01-05T04:26:36.622Z,0
2017-01-05T04:27:17.270Z,0
2017-01-05T04:27:57.921Z,0
2017-01-05T04:28:38.604Z,0
2017-01-05T04:29:20.106Z,0
2017-01-05T04:30:00.743Z,0
2017-01-05T04:30:41.283Z,0
2017-01-05T04:31:21.907Z,0
2017-01-05T04:32:02.554Z,0
2017-01-05T04:32:43.244Z,0
2017-01-05T04:33:23.802Z,0
2017-01-05T04:34:04.399Z,0
2017-01-05T04:34:45.176Z,0
2017-01-05T04:35:25.931Z,0
2017-01-05T04:36:06.574Z,0
2017-01-05T04:36:47.132Z,0
2017-01-05T04:37:28.800Z,0
2017-01-05T04:38:09.460Z,0
2017-01-05T04:38:50.104Z,0
2017-01-05T04:39:30.874Z,0
2017-01-05T04:40:12.479Z,0
2017-01-05T04:40:53.032Z,0
2017-01-05T04:41:34.789Z,0
2017-01-05T04:42:15.418Z,0
2017-01-05T04:42:57.136Z,0
2017-01-05T04:43:37.698Z,0
2017-01-05T04:44:19.331Z,0
2017-01-05T04:44:59.977Z,0
2017-01-05T04:45:40.770Z,0
2017-01-05T04:46:21.335Z,0
2017-01-05T04:47:02.036Z,0
2017-01-05T04:47:42.689Z,0
2017-01-05T04:48:23.287Z,0
2017-01-05T04:49:03.843Z,0
2017-01-05T04:49:44.466Z,0
2017-01-05T04:50:25.121Z,0
2017-01-05T04:51:05.790Z,0
2017-01-05T04:51:46.357Z,0
2017-01-05T04:52:26.954Z,0
2017-01-05T04:53:07.606Z,0
2017-01-05T04:53:48.198Z,0
2017-01-05T04:54:28.757Z,0
2017-01-05T04:55:09.357Z,0
2017-01-05T04:55:50.112Z,0
2017-01-05T04:56:31.425Z,0
2017-01-05T04:57:11.983Z,0
2017-01-05T04:57:52.582Z,0
2017-01-05T04:58:33.241Z,0
2017-01-05T04:59:13.928Z,0
2017-01-05T04:59:54.495Z,0
2017-01-05T05:00:35.094Z,0
2017-01-05T05:01:15.734Z,0
2017-01-05T05:01:56.441Z,0
2017-01-05T05:02:37.103Z,0
2017-01-05T05:03:17.720Z,0
2017-01-05T05:03:58.361Z,0
2017-01-05T05:04:39.051Z,0
2017-01-05T05:05:19.698Z,0
2017-01-05T05:06:00.359Z,0
2017-01-05T05:06:41.011Z,0
2017-01-05T05:07:21.661Z,0
2017-01-05T05:08:02.316Z,0
2017-01-05T05:08:42.969Z,0
2017-01-05T05:09:23.621Z,0
2017-01-05T05:10:04.275Z,0
2017-01-05T05:10:44.927Z,0
2017-01-05T05:11:25.583Z,0
2017-01-05T05:12:06.212Z,0
2017-01-05T05:12:46.888Z,0
2017-01-05T05:13:27.542Z,0
2017-01-05T05:14:08.193Z,0
2017-01-05T05:14:48.760Z,0
2017-01-05T05:15:29.914Z,0
2017-01-05T05:16:10.525Z,0
2017-01-05T05:16:51.215Z,0
2017-01-05T05:17:31.768Z,0
2017-01-05T05:18:12.385Z,0
2017-01-05T05:18:53.025Z,0
2017-01-05T05:19:33.621Z,0
2017-01-05T05:20:14.237Z,0
2017-01-05T05:20:54.911Z,0
2017-01-05T05:21:35.551Z,0
2017-01-05T05:22:16.180Z,0
2017-01-05T05:22:56.941Z,0
2017-01-05T05:23:37.641Z,0
2017-01-05T05:24:18.356Z,0
2017-01-05T05:24:59.105Z,0
2017-01-05T05:25:39.755Z,0
2017-01-05T05:26:20.425Z,0
2017-01-05T05:27:01.605Z,0
2017-01-05T05:27:42.251Z,0
2017-01-05T05:28:22.865Z,0
2017-01-05T05:29:03.535Z,0
2017-01-05T05:29:44.879Z,0
2017-01-05T05:30:25.510Z,0
2017-01-05T05:31:06.055Z,0
2017-01-05T05:31:46.664Z,0
2017-01-05T05:32:27.311Z,0
2017-01-05T05:33:07.912Z,0
2017-01-05T05:33:48.471Z,0
2017-01-05T05:34:29.092Z,0
2017-01-05T05:35:11.766Z,0
2017-01-05T05:35:52.426Z,0
2017-01-05T05:36:33.068Z,0
2017-01-05T05:37:13.737Z,0
2017-01-05T05:37:54.471Z,0
2017-01-05T05:38:35.137Z,0
2017-01-05T05:39:15.788Z,0
2017-01-05T05:39:56.452Z,0
2017-01-05T05:40:37.017Z,0
2017-01-05T05:41:18.608Z,0
2017-01-05T05:41:59.322Z,0
2017-01-05T05:42:39.895Z,0
2017-01-05T05:43:21.560Z,0
2017-01-05T05:44:02.202Z,0
2017-01-05T05:44:42.781Z,0
2017-01-05T05:45:23.398Z,0
2017-01-05T05:46:04.055Z,0
2017-01-05T05:46:44.628Z,0
2017-01-05T05:47:25.271Z,0
2017-01-05T05:48:07.977Z,0
2017-01-05T05:48:48.553Z,0
2017-01-05T05:49:29.175Z,0
2017-01-05T05:50:09.821Z,0
2017-01-05T05:50:50.464Z,0
2017-01-05T05:51:31.129Z,0
2017-01-05T05:52:11.782Z,0
2017-01-05T05:52:52.428Z,0
2017-01-05T05:53:33.078Z,0
2017-01-05T05:54:13.748Z,0
2017-01-05T05:54:54.384Z,0
2017-01-05T05:55:35.053Z,0
2017-01-05T05:56:15.712Z,0
2017-01-05T05:56:56.354Z,0
2017-01-05T05:57:37.015Z,0
2017-01-05T05:58:17.666Z,0
2017-01-05T05:58:59.329Z,0
2017-01-05T05:59:39.989Z,0
2017-01-05T06:00:20.677Z,0
2017-01-05T06:01:01.384Z,0
2017-01-05T06:01:42.168Z,0
2017-01-05T06:02:22.826Z,0
2017-01-05T06:03:03.503Z,0
2017-01-05T06:03:44.061Z,0
2017-01-05T06:04:24.667Z,0
2017-01-05T06:05:05.326Z,0
2017-01-05T06:05:45.879Z,0
2017-01-05T06:06:27.548Z,0
2017-01-05T06:07:08.192Z,0
2017-01-05T06:07:48.758Z,0
2017-01-05T06:08:29.369Z,0
2017-01-05T06:09:10.081Z,0
2017-01-05T06:09:50.623Z,0
2017-01-05T06:10:31.321Z,0
2017-01-05T06:11:12.066Z,0
2017-01-05T06:11:52.873Z,0
2017-01-05T06:12:33.992Z,0
2017-01-05T06:13:14.740Z,0
2017-01-05T06:13:55.510Z,0
2017-01-05T06:14:36.191Z,0
2017-01-05T06:15:16.780Z,0
2017-01-05T06:15:57.485Z,0
2017-01-05T06:16:38.208Z,0
2017-01-05T06:17:18.909Z,0
2017-01-05T06:17:59.490Z,0
2017-01-05T06:18:40.189Z,0
2017-01-05T06:19:20.927Z,0
2017-01-05T06:20:01.624Z,0
2017-01-05T06:20:42.169Z,0
2017-01-05T06:21:22.876Z,0
2017-01-05T06:22:03.597Z,0
2017-01-05T06:22:44.342Z,0
2017-01-05T06:23:24.913Z,0
2017-01-05T06:24:05.608Z,0
2017-01-05T06:24:46.361Z,0
2017-01-05T06:25:28.072Z,0
2017-01-05T06:26:08.639Z,0
2017-01-05T06:26:49.329Z,0
2017-01-05T06:27:30.103Z,0
2017-01-05T06:28:10.896Z,0
2017-01-05T06:28:51.447Z,0
2017-01-05T06:29:32.152Z,0
2017-01-05T06:30:12.847Z,0
2017-01-05T06:30:53.553Z,0
2017-01-05T06:31:34.339Z,0
2017-01-05T06:32:15.067Z,0
2017-01-05T06:32:55.824Z,0
2017-01-05T06:33:36.590Z,0
2017-01-05T06:34:17.354Z,0
2017-01-05T06:34:58.091Z,0
2017-01-05T06:35:38.792Z,0
2017-01-05T06:36:19.368Z,0
2017-01-05T06:36:59.970Z,0
2017-01-05T06:37:40.709Z,0
2017-01-05T06:38:21.423Z,0
2017-01-05T06:39:01.982Z,0
2017-01-05T06:39:42.653Z,0
2017-01-05T06:40:23.320Z,0
2017-01-05T06:41:04.092Z,0
2017-01-05T06:41:44.730Z,0
2017-01-05T06:42:25.472Z,0
2017-01-05T06:43:06.238Z,0
2017-01-05T06:43:46.992Z,0
2017-01-05T06:44:27.841Z,0
2017-01-05T06:45:09.407Z,0
2017-01-05T06:45:50.033Z,0
2017-01-05T06:46:30.748Z,0
2017-01-05T06:47:11.487Z,0
2017-01-05T06:47:52.046Z,0
2017-01-05T06:48:32.810Z,0
2017-01-05T06:49:13.564Z,0
2017-01-05T06:49:54.150Z,0
2017-01-05T06:50:34.998Z,0
2017-01-05T06:51:15.708Z,0
2017-01-05T06:51:56.464Z,0
2017-01-05T06:52:37.230Z,0
2017-01-05T06:53:17.976Z,0
2017-01-05T06:53:58.647Z,0
2017-01-05T06:54:39.388Z,0
2017-01-05T06:55:20.140Z,0
2017-01-05T06:56:00.848Z,0
2017-01-05T06:56:41.415Z,0
2017-01-05T06:57:22.098Z,0
2017-01-05T06:58:02.870Z,0
2017-01-05T06:58:43.652Z,0
2017-01-05T06:59:24.211Z,0
2017-01-05T07:00:04.924Z,0
2017-01-05T07:00:45.664Z,0
2017-01-05T07:01:26.377Z,0
2017-01-05T07:02:06.915Z,0
2017-01-05T07:02:47.611Z,0
2017-01-05T07:03:28.383Z,0
2017-01-05T07:04:09.083Z,0
2017-01-05T07:04:49.638Z,0
2017-01-05T07:05:30.361Z,0
2017-01-05T07:06:11.111Z,0
2017-01-05T07:06:51.854Z,0
2017-01-05T07:07:32.616Z,0
2017-01-05T07:08:14.393Z,0
2017-01-05T07:08:55.088Z,0
2017-01-05T07:09:35.821Z,0
2017-01-05T07:10:16.569Z,0
2017-01-05T07:10:58.325Z,0
2017-01-05T07:11:39.141Z,0
2017-01-05T07:12:19.693Z,0
2017-01-05T07:13:00.417Z,0
2017-01-05T07:13:41.155Z,0
2017-01-05T07:14:21.957Z,0
2017-01-05T07:15:02.524Z,0
2017-01-05T07:15:43.228Z,0
2017-01-05T07:16:23.965Z,0
2017-01-05T07:17:04.712Z,0
2017-01-05T07:17:45.483Z,0
2017-01-05T07:18:26.147Z,0
2017-01-05T07:19:06.928Z,0
2017-01-05T07:19:47.659Z,0
2017-01-05T07:20:28.408Z,0
2017-01-05T07:21:09.039Z,0
2017-01-05T07:21:49.751Z,0
2017-01-05T07:22:30.319Z,0
2017-01-05T07:23:11.017Z,0
2017-01-05T07:23:51.757Z,0
2017-01-05T07:24:32.456Z,0
2017-01-05T07:25:13.007Z,0
2017-01-05T07:25:53.729Z,0
2017-01-05T07:26:34.472Z,0
2017-01-05T07:27:15.191Z,0
2017-01-05T07:27:56.257Z,0
2017-01-05T07:28:36.967Z,0
2017-01-05T07:29:17.717Z,0
2017-01-05T07:29:58.419Z,0
2017-01-05T07:30:39.109Z,0
2017-01-05T07:31:19.874Z,0
2017-01-05T07:32:00.632Z,0
2017-01-05T07:32:42.399Z,0
2017-01-05T07:33:23.354Z,0
2017-01-05T07:34:04.125Z,0
2017-01-05T07:34:44.869Z,0
2017-01-05T07:35:28.237Z,0
2017-01-05T07:36:08.885Z,0
2017-01-05T07:36:50.681Z,0
2017-01-05T07:37:31.392Z,0
2017-01-05T07:38:12.176Z,0
2017-01-05T07:38:52.797Z,0
2017-01-05T07:39:33.545Z,0
2017-01-05T07:40:14.386Z,0
2017-01-05T07:40:55.199Z,0
2017-01-05T07:41:35.771Z,0
2017-01-05T07:42:16.489Z,0
2017-01-05T07:42:57.207Z,0
2017-01-05T07:43:37.912Z,0
2017-01-05T07:44:18.481Z,0
2017-01-05T07:44:59.182Z,0
2017-01-05T07:45:39.941Z,0
2017-01-05T07:46:20.811Z,0
2017-01-05T07:47:01.553Z,0
2017-01-05T07:47:42.313Z,0
2017-01-05T07:48:23.056Z,0
2017-01-05T07:49:04.889Z,0
2017-01-05T07:49:45.661Z,0
2017-01-05T07:50:26.459Z,0
2017-01-05T07:51:07.022Z,0
2017-01-05T07:51:47.760Z,0
2017-01-05T07:52:28.509Z,0
2017-01-05T07:53:09.085Z,0
2017-01-05T07:53:49.815Z,0
2017-01-05T07:54:30.571Z,0
2017-01-05T07:55:11.145Z,0
2017-01-05T07:55:51.862Z,0
2017-01-05T07:56:32.642Z,0
2017-01-05T07:57:13.426Z,0
2017-01-05T07:57:53.979Z,0
2017-01-05T07:58:34.687Z,0
2017-01-05T07:59:15.551Z,0
2017-01-05T07:59:56.341Z,0
2017-01-05T08:00:36.905Z,0
2017-01-05T08:01:17.622Z,0
2017-01-05T08:01:58.368Z,0
2017-01-05T08:02:40.086Z,0
2017-01-05T08:03:20.658Z,0
2017-01-05T08:04:01.349Z,0
2017-01-05T08:04:42.097Z,0
2017-01-05T08:05:22.897Z,0
2017-01-05T08:06:03.606Z,0
2017-01-05T08:06:45.077Z,0
2017-01-05T08:07:25.836Z,0
2017-01-05T08:08:06.600Z,0
2017-01-05T08:08:47.353Z,0
2017-01-05T08:09:28.116Z,0
2017-01-05T08:10:08.850Z,0
2017-01-05T08:10:49.428Z,0
2017-01-05T08:11:30.169Z,0
2017-01-05T08:12:10.936Z,0
2017-01-05T08:12:51.499Z,0
2017-01-05T08:13:32.222Z,0
2017-01-05T08:14:12.987Z,0
2017-01-05T08:14:53.579Z,0
2017-01-05T08:15:34.181Z,0
2017-01-05T08:16:14.934Z,0
2017-01-05T08:16:55.482Z,0
2017-01-05T08:17:36.238Z,0
2017-01-05T08:18:16.902Z,0
2017-01-05T08:18:57.455Z,0
2017-01-05T08:19:38.105Z,0
2017-01-05T08:20:18.851Z,0
2017-01-05T08:20:59.556Z,0
2017-01-05T08:21:40.174Z,0
2017-01-05T08:22:20.949Z,0
2017-01-05T08:23:01.838Z,0
2017-01-05T08:23:42.571Z,0
2017-01-05T08:24:23.119Z,0
2017-01-05T08:25:03.832Z,0
2017-01-05T08:25:44.478Z,0
2017-01-05T08:26:25.188Z,0
2017-01-05T08:27:05.758Z,0
2017-01-05T08:27:46.443Z,5
2017-01-05T08:28:27.211Z,5
2017-01-05T08:29:08.004Z,5
2017-01-05T08:29:48.571Z,5
2017-01-05T08:30:29.381Z,5
2017-01-05T08:31:10.023Z,5
2017-01-05T08:31:51.817Z,5
2017-01-05T08:32:32.452Z,5
2017-01-05T08:33:13.106Z,5
2017-01-05T08:33:53.763Z,5
2017-01-05T08:34:34.686Z,5
2017-01-05T08:35:15.270Z,5
2017-01-05T08:35:55.975Z,5
2017-01-05T08:36:36.604Z,5
2017-01-05T08:37:17.349Z,5
2017-01-05T08:37:57.996Z,5
2017-01-05T08:38:39.602Z,5
2017-01-05T08:39:20.154Z,5
2017-01-05T08:40:00.759Z,5
2017-01-05T08:40:43.354Z,5
2017-01-05T08:41:24.979Z,5
2017-01-05T08:42:05.546Z,5
2017-01-05T08:42:46.285Z,5
2017-01-05T08:43:26.896Z,5
2017-01-05T08:44:07.517Z,5
2017-01-05T08:44:48.054Z,5
2017-01-05T08:45:28.670Z,5
2017-01-05T08:46:09.305Z,5
2017-01-05T08:46:50.005Z,5
2017-01-05T08:47:30.552Z,5
2017-01-05T08:48:12.185Z,10
2017-01-05T08:48:52.837Z,10
2017-01-05T08:49:33.538Z,10
2017-01-05T08:50:15.010Z,15
2017-01-05T08:50:55.667Z,20
2017-01-05T08:51:36.327Z,25
2017-01-05T08:52:16.969Z,30
2017-01-05T08:52:57.616Z,35
2017-01-05T08:53:38.282Z,45
2017-01-05T08:54:19.437Z,60
2017-01-05T08:55:00.087Z,90
2017-01-05T08:55:40.625Z,115
2017-01-05T08:56:21.250Z,140
2017-01-05T08:57:01.899Z,155
2017-01-05T08:57:42.541Z,175
2017-01-05T08:58:23.206Z,195
2017-01-05T08:59:03.865Z,200
2017-01-05T08:59:44.531Z,215
2017-01-05T09:00:25.169Z,230
2017-01-05T09:01:05.825Z,250
2017-01-05T09:01:46.469Z,270
2017-01-05T09:02:28.146Z,295
2017-01-05T09:03:08.817Z,310
2017-01-05T09:03:49.557Z,330
2017-01-05T09:04:30.207Z,345
2017-01-05T09:05:11.977Z,355
2017-01-05T09:05:52.692Z,375
2017-01-05T09:06:33.282Z,395
2017-01-05T09:07:14.043Z,410
2017-01-05T09:07:54.695Z,420
2017-01-05T09:08:35.358Z,435
2017-01-05T09:09:17.027Z,455
2017-01-05T09:09:57.696Z,450
2017-01-05T09:10:38.331Z,450
2017-01-05T09:11:20.929Z,450
2017-01-05T09:12:02.608Z,445
2017-01-05T09:12:43.269Z,450
2017-01-05T09:13:23.944Z,455
2017-01-05T09:14:04.568Z,475
2017-01-05T09:14:45.223Z,500
2017-01-05T09:15:25.876Z,520
2017-01-05T09:16:07.600Z,555
2017-01-05T09:16:48.208Z,585
2017-01-05T09:17:28.878Z,650
2017-01-05T09:18:09.511Z,675
2017-01-05T09:18:50.111Z,670
2017-01-05T09:19:30.675Z,690
2017-01-05T09:20:11.388Z,715
2017-01-05T09:20:52.067Z,745
2017-01-05T09:21:32.719Z,770
2017-01-05T09:22:13.276Z,780
2017-01-05T09:22:53.895Z,805
2017-01-05T09:23:34.572Z,810
2017-01-05T09:24:15.130Z,805
2017-01-05T09:24:57.779Z,815
2017-01-05T09:25:38.483Z,820
2017-01-05T09:26:19.133Z,815
2017-01-05T09:26:59.783Z,810
2017-01-05T09:27:42.688Z,795
2017-01-05T09:28:24.373Z,775
2017-01-05T09:29:05.018Z,765
2017-01-05T09:29:45.676Z,755
2017-01-05T09:30:26.334Z,760
2017-01-05T09:31:06.889Z,795
2017-01-05T09:31:47.500Z,815
2017-01-05T09:32:28.133Z,855
2017-01-05T09:33:09.775Z,880
2017-01-05T09:33:50.309Z,870
2017-01-05T09:34:32.036Z,860
2017-01-05T09:35:12.697Z,820
2017-01-05T09:35:53.396Z,805
2017-01-05T09:36:33.999Z,785
2017-01-05T09:37:14.654Z,810
2017-01-05T09:37:55.330Z,825
2017-01-05T09:38:35.957Z,805
2017-01-05T09:39:16.613Z,785
2017-01-05T09:39:57.262Z,775
2017-01-05T09:40:38.978Z,775
2017-01-05T09:41:19.540Z,785
2017-01-05T09:42:00.143Z,765
2017-01-05T09:42:41.832Z,720
2017-01-05T09:43:22.397Z,665
2017-01-05T09:44:05.075Z,585
2017-01-05T09:44:45.745Z,520
2017-01-05T09:45:26.303Z,455
2017-01-05T09:46:09.084Z,370
2017-01-05T09:46:49.627Z,305
2017-01-05T09:47:30.278Z,275
2017-01-05T09:48:11.957Z,255
2017-01-05T09:48:52.612Z,235
2017-01-05T09:49:34.288Z,220
2017-01-05T09:50:14.941Z,220
2017-01-05T09:50:55.596Z,235
2017-01-05T09:51:36.270Z,235
2017-01-05T09:52:16.948Z,220
2017-01-05T09:52:57.508Z,200
2017-01-05T09:53:38.231Z,180
2017-01-05T09:54:18.859Z,165
2017-01-05T09:55:00.584Z,150
2017-01-05T09:55:41.139Z,130
2017-01-05T09:56:22.763Z,115
2017-01-05T09:57:03.427Z,110
2017-01-05T09:57:43.994Z,105
2017-01-05T09:58:24.619Z,100
2017-01-05T09:59:05.286Z,90
2017-01-05T09:59:45.904Z,90
2017-01-05T10:00:28.525Z,85
2017-01-05T10:01:10.225Z,80
2017-01-05T10:01:50.854Z,80